Time;durP1;ratioP1;P1;durP2;ratioP2;P2;SDS_P1;SDS_P2;PMS_P1;PMS_P2;Temp;Humidity;BMP_temperature;BMP_pressure;BME280_temperature;BME280_humidity;BME280_pressure;Samples;Min_cycle;Max_cycle;Signal;HPM_P1;HPM_P2
2021/07/16 00:03:55;;;;;;;8.20;2.70;;;;;;;;;;5012602;28;20481;-59
2021/07/16 00:06:25;;;;;;;9.13;2.77;;;;;;;;;;5012688;28;20045;-59
2021/07/16 00:09:02;;;;;;;16.43;10.10;;;;;;;;;;5041299;28;20037;-59
2021/07/16 00:12:01;;;;;;;20.50;10.23;;;;;;;;;;5054536;28;20048;-59
2021/07/16 00:14:47;;;;;;;13.73;4.97;;;;;;;;;;5034868;28;20572;-60
2021/07/16 00:17:27;;;;;;;7.63;3.00;;;;;;;;;;5010312;28;20037;-59
2021/07/16 00:20:01;;;;;;;9.60;3.63;;;;;;;;;;5034065;28;20033;-60
2021/07/16 00:22:34;;;;;;;7.37;3.63;;;;;;;;;;5034191;28;20037;-59
2021/07/16 00:31:03;;;;;;;12.37;4.10;;;;;;;;;;5025012;28;20037;-59
2021/07/16 00:33:30;;;;;;;13.70;3.50;;;;;;;;;;5034120;28;20400;-59
2021/07/16 00:36:10;;;;;;;13.67;3.90;;;;;;;;;;5034257;28;20112;-59
2021/07/16 00:38:49;;;;;;;37.20;6.60;;;;;;;;;;5033884;28;20037;-59
2021/07/16 00:41:16;;;;;;;16.60;4.13;;;;;;;;;;5033820;28;20387;-59
2021/07/16 00:44:11;;;;;;;17.40;4.67;;;;;;;;;;5033830;28;20037;-59
2021/07/16 00:46:49;;;;;;;14.60;5.10;;;;;;;;;;5029793;28;20045;-59
2021/07/16 00:49:20;;;;;;;36.27;6.73;;;;;;;;;;5033971;28;20022;-59
2021/07/16 00:51:56;;;;;;;14.47;4.50;;;;;;;;;;5033788;28;20056;-59
2021/07/16 00:54:43;;;;;;;15.53;4.17;;;;;;;;;;5033844;28;20099;-59
2021/07/16 00:57:32;;;;;;;12.33;2.97;;;;;;;;;;5033858;28;20033;-59
2021/07/16 01:00:11;;;;;;;79.93;15.03;;;;;;;;;;5033771;28;20032;-59
2021/07/16 01:02:53;;;;;;;17.30;4.83;;;;;;;;;;5033514;28;20092;-59
2021/07/16 01:05:31;;;;;;;13.83;3.17;;;;;;;;;;5033763;28;20026;-59
2021/07/16 01:08:09;;;;;;;16.27;4.00;;;;;;;;;;5033684;28;20017;-59
2021/07/16 01:10:40;;;;;;;8.93;3.87;;;;;;;;;;5033589;28;20087;-59
2021/07/16 01:13:16;;;;;;;13.30;3.70;;;;;;;;;;5033455;28;20561;-59
2021/07/16 01:15:46;;;;;;;13.07;3.70;;;;;;;;;;5034868;28;20089;-59
2021/07/16 01:18:23;;;;;;;9.50;3.90;;;;;;;;;;5033298;28;20022;-59
2021/07/16 01:20:50;;;;;;;14.17;3.40;;;;;;;;;;5033444;28;20026;-59
2021/07/16 01:23:23;;;;;;;10.27;3.87;;;;;;;;;;5033224;28;20026;-59
2021/07/16 01:25:59;;;;;;;21.90;4.00;;;;;;;;;;5033332;28;20025;-59
2021/07/16 01:28:26;;;;;;;8.63;4.00;;;;;;;;;;5033485;28;20033;-59
2021/07/16 01:30:56;;;;;;;8.23;3.60;;;;;;;;;;5033611;28;20025;-59
2021/07/16 01:33:24;;;;;;;13.97;4.00;;;;;;;;;;5033027;28;20033;-59
2021/07/16 01:35:59;;;;;;;12.13;3.60;;;;;;;;;;5033301;28;20028;-59
2021/07/16 01:38:32;;;;;;;12.90;4.05;;;;;;;;;;5033061;28;20082;-59
2021/07/16 01:41:00;;;;;;;6.60;3.60;;;;;;;;;;5033167;28;20072;-58
2021/07/16 01:43:28;;;;;;;8.53;3.40;;;;;;;;;;5032507;28;20045;-59
2021/07/16 01:45:58;;;;;;;11.97;5.23;;;;;;;;;;5033131;28;20121;-59
2021/07/16 01:48:27;;;;;;;10.30;3.80;;;;;;;;;;5032950;28;20085;-59
2021/07/16 01:50:57;;;;;;;13.93;5.43;;;;;;;;;;5031971;28;20033;-59
2021/07/16 01:53:28;;;;;;;11.57;4.83;;;;;;;;;;5015105;28;20026;-59
2021/07/16 01:56:08;;;;;;;13.43;4.30;;;;;;;;;;5032912;28;20037;-59
2021/07/16 01:58:51;;;;;;;11.77;4.33;;;;;;;;;;5032676;28;20021;-59
2021/07/16 02:01:28;;;;;;;13.63;6.23;;;;;;;;;;5032770;28;20030;-59
2021/07/16 02:04:16;;;;;;;21.93;8.83;;;;;;;;;;5032908;28;20037;-59
2021/07/16 02:06:47;;;;;;;16.83;6.73;;;;;;;;;;5032770;28;20030;-58
2021/07/16 02:09:14;;;;;;;15.83;5.00;;;;;;;;;;5032760;28;20026;-59
2021/07/16 02:11:45;;;;;;;8.70;4.10;;;;;;;;;;5032018;28;20506;-59
2021/07/16 02:14:38;;;;;;;12.20;4.47;;;;;;;;;;5034392;28;20063;-59
2021/07/16 02:17:18;;;;;;;9.63;3.80;;;;;;;;;;5012848;28;20240;-58
2021/07/16 02:19:48;;;;;;;13.53;4.60;;;;;;;;;;5012793;28;20384;-58
2021/07/16 02:22:16;;;;;;;10.63;4.23;;;;;;;;;;5012515;28;20034;-59
2021/07/16 02:24:47;;;;;;;20.07;3.70;;;;;;;;;;5012594;28;20547;-59
2021/07/16 02:27:15;;;;;;;13.10;4.00;;;;;;;;;;5012663;28;20026;-59
2021/07/16 02:29:42;;;;;;;7.70;2.60;;;;;;;;;;5012666;28;20022;-58
2021/07/16 02:32:12;;;;;;;10.63;3.53;;;;;;;;;;5012558;28;20025;-58
2021/07/16 02:34:52;;;;;;;14.00;4.27;;;;;;;;;;5012543;28;20149;-58
2021/07/16 02:37:26;;;;;;;11.07;3.87;;;;;;;;;;5008351;28;20096;-58
2021/07/16 02:40:04;;;;;;;;;;;;;;;;;;;;;
2021/07/16 02:42:32;;;;;;;14.97;5.67;;;;;;;;;;5012451;28;20026;-59
2021/07/16 02:45:03;;;;;;;20.40;5.97;;;;;;;;;;4977811;28;20042;-58
2021/07/16 02:47:43;;;;;;;12.93;3.73;;;;;;;;;;5012523;28;20030;-58
2021/07/16 02:53:12;;;;;;;23.30;7.97;;;;;;;;;;5010323;28;20034;-58
2021/07/16 02:55:43;;;;;;;15.63;7.40;;;;;;;;;;5012558;28;20255;-58
2021/07/16 02:58:13;;;;;;;18.37;5.63;;;;;;;;;;5012212;28;20022;-58
2021/07/16 03:00:40;;;;;;;17.00;4.40;;;;;;;;;;5012248;28;20034;-58
2021/07/16 03:03:13;;;;;;;10.93;3.87;;;;;;;;;;5012063;28;20492;-58
2021/07/16 03:05:43;;;;;;;15.20;3.57;;;;;;;;;;5012467;28;20637;-58
2021/07/16 03:08:22;;;;;;;15.17;4.03;;;;;;;;;;5012722;28;20539;-58
2021/07/16 03:11:02;;;;;;;18.17;3.97;;;;;;;;;;5015847;28;20034;-58
2021/07/16 03:13:43;;;;;;;11.73;3.77;;;;;;;;;;5016228;28;20056;-58
2021/07/16 03:16:42;;;;;;;11.80;3.33;;;;;;;;;;5034709;28;20081;-58
2021/07/16 03:19:26;;;;;;;12.37;3.03;;;;;;;;;;5035812;28;20021;-58
2021/07/16 03:21:54;;;;;;;10.37;3.60;;;;;;;;;;5034826;28;20096;-58
2021/07/16 03:24:27;;;;;;;17.10;5.57;;;;;;;;;;5035524;28;20026;-58
2021/07/16 03:26:55;;;;;;;13.70;3.33;;;;;;;;;;5035583;28;20037;-58
2021/07/16 03:29:46;;;;;;;21.33;4.17;;;;;;;;;;5034547;28;20065;-58
2021/07/16 03:32:18;;;;;;;13.57;3.63;;;;;;;;;;5035570;28;20034;-58
2021/07/16 03:34:45;;;;;;;9.60;3.20;;;;;;;;;;5035437;28;20025;-58
2021/07/16 03:37:15;;;;;;;12.77;4.93;;;;;;;;;;5035716;28;20025;-58
2021/07/16 03:39:45;;;;;;;17.00;4.07;;;;;;;;;;5035708;28;20025;-58
2021/07/16 03:42:12;;;;;;;14.07;3.83;;;;;;;;;;5035178;28;20382;-58
2021/07/16 03:44:41;;;;;;;16.67;3.87;;;;;;;;;;5035541;28;20025;-58
2021/07/16 03:47:13;;;;;;;16.13;3.83;;;;;;;;;;5035509;28;20018;-58
2021/07/16 03:49:42;;;;;;;12.83;3.40;;;;;;;;;;5035161;28;20032;-58
2021/07/16 03:52:08;;;;;;;27.00;3.73;;;;;;;;;;5034956;28;20025;-58
2021/07/16 03:54:36;;;;;;;16.03;3.33;;;;;;;;;;5034731;28;20104;-58
2021/07/16 03:57:08;;;;;;;13.47;3.40;;;;;;;;;;5034910;28;20029;-58
2021/07/16 03:59:35;;;;;;;13.13;3.13;;;;;;;;;;5034928;28;20017;-58
2021/07/16 04:02:06;;;;;;;21.73;3.83;;;;;;;;;;5034563;28;20025;-58
2021/07/16 04:04:42;;;;;;;12.37;3.37;;;;;;;;;;5034788;28;20029;-58
2021/07/16 04:07:12;;;;;;;11.57;3.40;;;;;;;;;;5034773;28;20020;-58
2021/07/16 04:09:39;;;;;;;13.43;3.33;;;;;;;;;;5017608;28;20117;-58
2021/07/16 04:12:13;;;;;;;14.87;3.63;;;;;;;;;;5034538;28;20084;-58
2021/07/16 04:14:42;;;;;;;16.27;3.45;;;;;;;;;;5034656;28;20021;-58
2021/07/16 04:17:10;;;;;;;10.97;3.67;;;;;;;;;;5036272;28;20084;-58
2021/07/16 04:19:38;;;;;;;15.47;3.67;;;;;;;;;;5034521;28;20022;-58
2021/07/16 04:22:06;;;;;;;19.20;3.90;;;;;;;;;;5034302;28;20112;-58
2021/07/16 04:24:42;;;;;;;8.13;2.93;;;;;;;;;;5034272;28;20033;-58
2021/07/16 04:27:09;;;;;;;10.00;3.13;;;;;;;;;;5016568;28;20036;-58
2021/07/16 04:29:38;;;;;;;13.07;3.40;;;;;;;;;;5034212;28;20029;-58
2021/07/16 04:32:06;;;;;;;19.73;3.17;;;;;;;;;;5034052;28;20060;-58
2021/07/16 04:34:34;;;;;;;14.33;3.73;;;;;;;;;;5034228;28;20380;-58
2021/07/16 04:37:03;;;;;;;11.37;3.30;;;;;;;;;;5034156;28;20480;-58
2021/07/16 04:39:30;;;;;;;11.67;3.83;;;;;;;;;;5034113;28;20034;-57
2021/07/16 04:41:57;;;;;;;11.57;3.20;;;;;;;;;;5033881;28;20045;-57
2021/07/16 04:44:30;;;;;;;15.53;5.00;;;;;;;;;;5033933;28;20479;-57
2021/07/16 04:46:57;;;;;;;16.57;3.90;;;;;;;;;;5033978;28;20026;-57
2021/07/16 04:49:25;;;;;;;9.17;3.53;;;;;;;;;;5033891;28;20018;-57
2021/07/16 04:51:56;;;;;;;14.33;4.33;;;;;;;;;;5033956;28;20173;-57
2021/07/16 04:54:27;;;;;;;13.90;3.80;;;;;;;;;;5032909;28;20037;-57
2021/07/16 04:57:04;;;;;;;14.43;3.60;;;;;;;;;;5033763;28;20040;-57
2021/07/16 04:59:35;;;;;;;16.80;5.43;;;;;;;;;;5033872;28;20388;-57
2021/07/16 05:02:06;;;;;;;14.73;5.00;;;;;;;;;;5033263;28;20107;-57
2021/07/16 05:04:39;;;;;;;20.63;4.10;;;;;;;;;;5033680;28;20025;-57
2021/07/16 05:07:11;;;;;;;17.43;4.00;;;;;;;;;;5033839;28;20388;-57
2021/07/16 05:09:41;;;;;;;16.33;4.40;;;;;;;;;;5033055;28;20033;-57
2021/07/16 05:12:11;;;;;;;14.50;4.33;;;;;;;;;;5033009;28;20065;-57
2021/07/16 05:14:43;;;;;;;16.30;5.40;;;;;;;;;;5033525;28;20026;-57
2021/07/16 05:17:10;;;;;;;15.30;4.63;;;;;;;;;;5035296;28;20061;-57
2021/07/16 05:19:37;;;;;;;16.23;4.30;;;;;;;;;;5033619;28;20021;-57
2021/07/16 05:22:04;;;;;;;13.13;3.70;;;;;;;;;;5033199;28;20458;-57
2021/07/16 05:24:31;;;;;;;15.53;3.70;;;;;;;;;;5033977;28;20379;-57
2021/07/16 05:26:58;;;;;;;18.00;4.43;;;;;;;;;;5033255;28;20464;-57
2021/07/16 05:29:25;;;;;;;18.27;4.07;;;;;;;;;;5033571;28;20036;-57
2021/07/16 05:31:52;;;;;;;11.90;3.13;;;;;;;;;;5032938;28;20045;-57
2021/07/16 05:34:19;;;;;;;17.33;4.30;;;;;;;;;;5033240;28;20120;-57
2021/07/16 05:36:45;;;;;;;16.47;4.00;;;;;;;;;;5033403;28;20037;-57
2021/07/16 05:39:12;;;;;;;19.13;3.73;;;;;;;;;;5033080;28;20064;-57
2021/07/16 05:41:39;;;;;;;12.57;4.17;;;;;;;;;;5032786;28;20113;-57
2021/07/16 05:44:06;;;;;;;17.50;4.57;;;;;;;;;;5032860;28;20041;-57
2021/07/16 05:46:33;;;;;;;18.57;4.97;;;;;;;;;;5033362;28;20025;-57
2021/07/16 05:49:01;;;;;;;17.77;4.77;;;;;;;;;;5033025;28;20112;-57
2021/07/16 05:51:28;;;;;;;18.80;4.53;;;;;;;;;;5032860;28;20032;-57
2021/07/16 05:53:55;;;;;;;15.70;4.70;;;;;;;;;;5033014;28;20108;-57
2021/07/16 05:56:22;;;;;;;25.50;6.93;;;;;;;;;;5032992;28;20052;-57
2021/07/16 05:58:49;;;;;;;21.77;5.80;;;;;;;;;;5032932;28;20040;-57
2021/07/16 06:01:16;;;;;;;16.37;5.77;;;;;;;;;;5032819;28;20037;-57
2021/07/16 06:03:43;;;;;;;12.80;4.30;;;;;;;;;;5032776;28;20022;-57
2021/07/16 06:06:11;;;;;;;18.70;4.43;;;;;;;;;;5032566;28;20030;-57
2021/07/16 06:08:39;;;;;;;8.93;3.17;;;;;;;;;;5032681;28;20032;-57
2021/07/16 06:11:06;;;;;;;11.57;2.80;;;;;;;;;;5032555;28;20032;-57
2021/07/16 06:13:34;;;;;;;11.70;3.53;;;;;;;;;;5032497;28;20127;-57
2021/07/16 06:16:01;;;;;;;11.00;3.83;;;;;;;;;;5034421;28;20045;-57
2021/07/16 06:18:28;;;;;;;16.90;4.40;;;;;;;;;;5032463;28;20084;-57
2021/07/16 06:20:55;;;;;;;14.70;3.47;;;;;;;;;;5032560;28;20376;-57
2021/07/16 06:23:23;;;;;;;8.97;3.30;;;;;;;;;;5032436;28;20408;-57
2021/07/16 06:25:51;;;;;;;15.03;3.60;;;;;;;;;;5032603;28;20032;-57
2021/07/16 06:28:18;;;;;;;15.57;4.73;;;;;;;;;;5032349;28;20026;-57
2021/07/16 06:30:55;;;;;;;13.70;4.63;;;;;;;;;;5032615;28;20033;-57
2021/07/16 06:33:23;;;;;;;13.27;3.93;;;;;;;;;;5032607;28;20028;-57
2021/07/16 06:35:53;;;;;;;22.30;3.77;;;;;;;;;;5032219;28;20033;-57
2021/07/16 06:38:22;;;;;;;12.90;3.90;;;;;;;;;;5032104;28;20034;-57
2021/07/16 06:40:50;;;;;;;16.20;3.77;;;;;;;;;;5032058;28;20041;-57
2021/07/16 06:43:21;;;;;;;9.07;3.00;;;;;;;;;;5032370;28;20547;-57
2021/07/16 06:45:51;;;;;;;8.20;2.87;;;;;;;;;;5035631;28;20030;-57
2021/07/16 06:48:21;;;;;;;12.23;3.30;;;;;;;;;;5036021;28;20436;-57
2021/07/16 06:50:48;;;;;;;33.97;4.53;;;;;;;;;;5036322;28;20471;-57
2021/07/16 06:53:16;;;;;;;19.33;4.43;;;;;;;;;;5036067;28;20026;-57
2021/07/16 06:55:47;;;;;;;14.43;3.70;;;;;;;;;;5036074;28;20095;-57
2021/07/16 06:58:15;;;;;;;16.60;3.97;;;;;;;;;;5035676;28;20034;-57
2021/07/16 07:00:47;;;;;;;9.07;3.63;;;;;;;;;;5036006;28;20463;-57
2021/07/16 07:03:17;;;;;;;14.77;3.77;;;;;;;;;;5034880;28;20052;-57
2021/07/16 07:05:45;;;;;;;21.73;4.00;;;;;;;;;;5035788;28;20037;-57
2021/07/16 07:08:15;;;;;;;18.37;4.50;;;;;;;;;;5036168;28;20053;-57
2021/07/16 07:10:43;;;;;;;14.17;3.40;;;;;;;;;;5035858;28;20021;-57
2021/07/16 07:13:19;;;;;;;19.10;3.33;;;;;;;;;;5036106;28;20392;-57
2021/07/16 07:15:47;;;;;;;13.33;4.47;;;;;;;;;;5037421;28;20119;-57
2021/07/16 07:18:16;;;;;;;14.63;3.90;;;;;;;;;;5035674;28;20037;-57
2021/07/16 07:20:52;;;;;;;8.07;3.23;;;;;;;;;;5017748;28;20030;-57
2021/07/16 07:23:25;;;;;;;9.63;3.23;;;;;;;;;;5035552;28;20029;-57
2021/07/16 07:25:54;;;;;;;8.87;3.10;;;;;;;;;;5035416;28;20255;-57
2021/07/16 07:28:23;;;;;;;22.90;4.07;;;;;;;;;;5035562;28;20108;-57
2021/07/16 07:30:54;;;;;;;13.97;3.43;;;;;;;;;;5035503;28;20052;-57
2021/07/16 07:33:24;;;;;;;11.13;3.50;;;;;;;;;;5033901;28;20046;-57
2021/07/16 07:35:56;;;;;;;9.47;3.47;;;;;;;;;;5034166;28;20041;-57
2021/07/16 07:38:26;;;;;;;23.43;6.77;;;;;;;;;;5035244;28;20384;-57
2021/07/16 07:40:53;;;;;;;16.53;5.27;;;;;;;;;;5035214;28;20030;-57
2021/07/16 07:43:21;;;;;;;16.47;5.07;;;;;;;;;;5035064;28;20408;-57
2021/07/16 07:45:48;;;;;;;19.43;4.50;;;;;;;;;;5035293;28;20104;-57
2021/07/16 07:48:15;;;;;;;10.00;3.90;;;;;;;;;;5035150;28;20026;-57
2021/07/16 07:50:47;;;;;;;22.23;4.27;;;;;;;;;;5017298;28;20465;-57
2021/07/16 07:53:16;;;;;;;16.00;5.63;;;;;;;;;;5035078;28;20030;-57
2021/07/16 07:55:46;;;;;;;21.77;5.00;;;;;;;;;;5033430;28;20263;-57
2021/07/16 07:58:15;;;;;;;11.37;3.57;;;;;;;;;;5035039;28;20033;-57
2021/07/16 08:00:50;;;;;;;16.07;3.73;;;;;;;;;;5034697;28;20029;-57
2021/07/16 08:03:26;;;;;;;13.10;3.53;;;;;;;;;;5034529;28;20120;-57
2021/07/16 08:06:00;;;;;;;19.20;3.70;;;;;;;;;;5034935;28;20409;-57
2021/07/16 08:08:31;;;;;;;19.50;4.03;;;;;;;;;;5034595;28;20040;-57
2021/07/16 08:11:00;;;;;;;18.97;3.40;;;;;;;;;;5034631;28;20269;-57
2021/07/16 08:13:28;;;;;;;14.80;3.80;;;;;;;;;;5034776;28;20109;-57
2021/07/16 08:15:56;;;;;;;14.10;3.93;;;;;;;;;;5036238;28;20271;-57
2021/07/16 08:18:25;;;;;;;13.03;3.53;;;;;;;;;;5034537;28;20247;-57
2021/07/16 08:20:54;;;;;;;9.17;3.10;;;;;;;;;;5033231;28;20068;-57
2021/07/16 08:23:22;;;;;;;9.67;3.00;;;;;;;;;;5034131;28;20685;-57
2021/07/16 08:25:49;;;;;;;9.13;2.80;;;;;;;;;;5034442;28;20045;-57
2021/07/16 08:28:19;;;;;;;12.47;3.83;;;;;;;;;;5034467;28;20083;-57
2021/07/16 08:30:49;;;;;;;9.07;2.80;;;;;;;;;;5034039;28;20331;-57
2021/07/16 08:33:18;;;;;;;11.17;3.60;;;;;;;;;;5034097;28;20255;-57
2021/07/16 08:35:49;;;;;;;8.00;3.20;;;;;;;;;;5034111;28;20598;-57
2021/07/16 08:38:20;;;;;;;14.07;3.90;;;;;;;;;;5034261;28;20342;-57
2021/07/16 08:40:47;;;;;;;13.60;4.90;;;;;;;;;;5034181;28;20258;-57
2021/07/16 08:43:35;;;;;;;12.77;3.17;;;;;;;;;;5034122;28;20038;-57
2021/07/16 08:46:19;;;;;;;12.57;3.60;;;;;;;;;;5032169;28;20034;-57
2021/07/16 08:48:49;;;;;;;8.03;3.20;;;;;;;;;;5033898;28;20665;-57
2021/07/16 08:51:20;;;;;;;16.60;3.77;;;;;;;;;;5033845;28;20259;-57
2021/07/16 08:53:52;;;;;;;15.83;3.90;;;;;;;;;;5033746;28;20258;-57
2021/07/16 08:56:19;;;;;;;22.17;3.70;;;;;;;;;;5033844;28;20247;-57
2021/07/16 08:58:47;;;;;;;14.17;4.10;;;;;;;;;;5033604;28;20301;-57
2021/07/16 09:01:14;;;;;;;11.90;4.20;;;;;;;;;;5033772;28;20259;-57
2021/07/16 09:03:57;;;;;;;9.77;3.33;;;;;;;;;;5033817;28;20322;-57
2021/07/16 09:06:42;;;;;;;19.87;3.40;;;;;;;;;;5033218;28;20153;-57
2021/07/16 09:09:09;;;;;;;15.25;5.07;;;;;;;;;;5033512;28;20258;-57
2021/07/16 09:12:02;;;;;;;20.73;4.30;;;;;;;;;;5033365;28;20025;-57
2021/07/16 09:14:30;;;;;;;9.90;3.00;;;;;;;;;;5030081;28;20270;-57
2021/07/16 09:17:15;;;;;;;11.93;3.77;;;;;;;;;;5035079;28;20394;-57
2021/07/16 09:19:55;;;;;;;12.27;3.17;;;;;;;;;;5033473;28;20286;-57
2021/07/16 09:22:25;;;;;;;15.87;4.03;;;;;;;;;;5033195;28;20365;-57
2021/07/16 09:24:54;;;;;;;14.43;3.87;;;;;;;;;;5033383;28;20626;-57
2021/07/16 09:27:32;;;;;;;14.87;3.47;;;;;;;;;;5033319;28;20247;-57
2021/07/16 09:30:18;;;;;;;18.07;3.97;;;;;;;;;;5033310;28;20259;-57
2021/07/16 09:32:45;;;;;;;;;;;;;;;;;;5033807;28;20373;-57
2021/07/16 09:35:17;;;;;;;10.67;3.07;;;;;;;;;;5033319;28;19905;-57
2021/07/16 09:37:52;;;;;;;13.07;4.43;;;;;;;;;;5033127;28;20273;-57
2021/07/16 09:40:23;;;;;;;10.88;2.78;;;;;;;;;;5033078;28;20246;-57
2021/07/16 09:42:57;;;;;;;13.30;3.50;;;;;;;;;;5033028;28;20141;-57
2021/07/16 09:45:24;;;;;;;17.23;3.60;;;;;;;;;;5032923;28;20251;-57
2021/07/16 09:47:51;;;;;;;10.13;3.17;;;;;;;;;;5033071;28;20668;-57
2021/07/16 09:50:21;;;;;;;10.83;3.03;;;;;;;;;;5032826;28;20305;-57
2021/07/16 09:52:48;;;;;;;9.27;3.53;;;;;;;;;;5032761;28;20610;-57
2021/07/16 09:55:18;;;;;;;12.67;3.33;;;;;;;;;;5032866;28;20254;-57
2021/07/16 09:57:58;;;;;;;15.03;3.73;;;;;;;;;;5032928;28;20266;-57
2021/07/16 10:00:26;;;;;;;14.47;2.87;;;;;;;;;;5032771;28;20258;-57
2021/07/16 10:02:55;;;;;;;8.57;2.87;;;;;;;;;;5032482;28;20282;-57
2021/07/16 10:05:22;;;;;;;10.43;3.07;;;;;;;;;;5032888;28;20355;-57
2021/07/16 10:07:50;;;;;;;19.07;3.93;;;;;;;;;;5032784;28;20259;-57
2021/07/16 10:10:18;;;;;;;18.17;3.60;;;;;;;;;;5032652;28;20247;-57
2021/07/16 10:12:46;;;;;;;14.63;4.87;;;;;;;;;;5032687;28;20255;-57
2021/07/16 10:15:14;;;;;;;8.23;3.00;;;;;;;;;;5032659;28;20699;-57
2021/07/16 10:17:41;;;;;;;13.77;3.33;;;;;;;;;;5034531;28;20340;-57
2021/07/16 10:20:13;;;;;;;10.60;3.60;;;;;;;;;;5036520;28;20660;-57
2021/07/16 10:22:41;;;;;;;16.47;3.37;;;;;;;;;;5036470;28;20637;-57
2021/07/16 10:25:12;;;;;;;8.83;3.20;;;;;;;;;;5036714;28;20254;-57
2021/07/16 10:27:43;;;;;;;16.20;3.83;;;;;;;;;;5036617;28;20602;-57
2021/07/16 10:30:11;;;;;;;19.37;4.27;;;;;;;;;;5018855;28;20266;-57
2021/07/16 10:32:46;;;;;;;11.97;3.20;;;;;;;;;;5036387;28;20262;-57
2021/07/16 10:35:16;;;;;;;18.77;4.47;;;;;;;;;;5036594;28;20262;-57
2021/07/16 10:37:43;;;;;;;9.40;3.60;;;;;;;;;;5036289;28;20113;-57
2021/07/16 10:40:31;;;;;;;13.03;3.50;;;;;;;;;;5036503;28;20334;-57
2021/07/16 10:42:57;;;;;;;14.30;3.20;;;;;;;;;;5036220;28;20680;-57
2021/07/16 10:45:34;;;;;;;14.60;3.90;;;;;;;;;;5036452;28;20250;-57
2021/07/16 10:48:13;;;;;;;12.70;3.60;;;;;;;;;;5036247;28;20250;-57
2021/07/16 10:50:42;;;;;;;15.10;3.53;;;;;;;;;;5036050;28;20255;-57
2021/07/16 10:53:14;;;;;;;11.60;3.60;;;;;;;;;;5035822;28;20255;-57
2021/07/16 10:55:41;;;;;;;10.80;3.40;;;;;;;;;;5036143;28;20243;-57
2021/07/16 10:58:18;;;;;;;13.17;3.10;;;;;;;;;;5035934;28;20313;-57
2021/07/16 11:00:45;;;;;;;20.80;3.70;;;;;;;;;;5035869;28;20255;-57
2021/07/16 11:03:13;;;;;;;15.93;3.93;;;;;;;;;;5035865;28;20289;-57
2021/07/16 11:05:42;;;;;;;14.37;4.50;;;;;;;;;;5036055;28;20334;-57
2021/07/16 11:08:29;;;;;;;7.53;3.50;;;;;;;;;;5035743;28;20287;-57
2021/07/16 11:11:06;;;;;;;18.00;4.43;;;;;;;;;;5035734;28;20263;-57
2021/07/16 11:13:35;;;;;;;10.40;4.43;;;;;;;;;;5035615;28;20242;-57
2021/07/16 11:16:25;;;;;;;9.73;3.30;;;;;;;;;;5037262;28;20665;-57
2021/07/16 11:18:55;;;;;;;11.17;3.80;;;;;;;;;;5035650;28;20294;-57
2021/07/16 11:21:41;;;;;;;10.90;3.30;;;;;;;;;;5035610;28;20301;-57
2021/07/16 11:24:07;;;;;;;;;;;;;;;;;;5036029;28;20270;-57
2021/07/16 11:26:47;;;;;;;12.83;3.33;;;;;;;;;;5035831;28;19905;-57
2021/07/16 11:29:15;;;;;;;12.80;4.00;;;;;;;;;;5035251;28;20255;-57
2021/07/16 11:31:42;;;;;;;15.50;3.77;;;;;;;;;;5034584;28;20258;-57
2021/07/16 11:34:15;;;;;;;11.77;3.00;;;;;;;;;;5035479;28;20346;-57
2021/07/16 11:36:57;;;;;;;11.17;3.57;;;;;;;;;;5035277;28;20282;-57
2021/07/16 11:39:27;;;;;;;12.47;4.13;;;;;;;;;;5035216;28;20274;-57
2021/07/16 11:41:55;;;;;;;8.40;3.80;;;;;;;;;;5035164;28;20278;-57
2021/07/16 11:44:28;;;;;;;17.60;4.57;;;;;;;;;;5035303;28;20266;-57
2021/07/16 11:46:56;;;;;;;12.80;3.57;;;;;;;;;;5035117;28;20329;-57
2021/07/16 11:49:23;;;;;;;15.33;3.33;;;;;;;;;;5035270;28;20250;-57
2021/07/16 11:51:57;;;;;;;17.27;3.57;;;;;;;;;;5035011;28;20736;-57
2021/07/16 11:54:29;;;;;;;14.10;3.77;;;;;;;;;;5035005;28;20658;-57
2021/07/16 11:56:59;;;;;;;8.33;2.87;;;;;;;;;;5035045;28;20614;-57
2021/07/16 11:59:27;;;;;;;15.50;3.53;;;;;;;;;;5034881;28;20255;-57
2021/07/16 12:02:10;;;;;;;16.23;3.97;;;;;;;;;;5034610;28;20607;-57
2021/07/16 12:04:41;;;;;;;12.43;3.17;;;;;;;;;;5034859;28;20263;-57
2021/07/16 12:07:09;;;;;;;12.07;3.80;;;;;;;;;;5035134;28;20246;-57
2021/07/16 12:09:38;;;;;;;13.17;4.33;;;;;;;;;;5034760;28;20254;-57
2021/07/16 12:12:13;;;;;;;17.10;4.90;;;;;;;;;;5034572;28;20255;-57
2021/07/16 12:14:46;;;;;;;20.53;5.93;;;;;;;;;;5034902;28;20255;-57
2021/07/16 12:17:14;;;;;;;15.57;4.80;;;;;;;;;;5036234;28;20445;-57
2021/07/16 12:19:41;;;;;;;13.00;3.73;;;;;;;;;;5034524;28;20255;-57
2021/07/16 12:22:08;;;;;;;16.63;4.00;;;;;;;;;;5034741;28;20278;-57
2021/07/16 12:24:36;;;;;;;17.60;3.90;;;;;;;;;;5034591;28;20254;-57
2021/07/16 12:27:08;;;;;;;18.30;4.80;;;;;;;;;;5033951;28;20661;-57
2021/07/16 12:29:35;;;;;;;17.10;4.80;;;;;;;;;;5034258;28;20305;-57
2021/07/16 12:32:02;;;;;;;18.03;4.73;;;;;;;;;;5034342;28;20255;-57
2021/07/16 12:34:29;;;;;;;15.33;4.90;;;;;;;;;;5034252;28;20274;-57
2021/07/16 12:37:08;;;;;;;13.17;4.20;;;;;;;;;;5034264;28;20251;-57
2021/07/16 12:39:35;;;;;;;8.90;3.30;;;;;;;;;;5034078;28;20313;-57
2021/07/16 12:42:12;;;;;;;11.43;3.37;;;;;;;;;;5033112;28;20681;-57
2021/07/16 12:44:39;;;;;;;18.73;4.33;;;;;;;;;;5034134;28;20270;-57
2021/07/16 12:47:07;;;;;;;17.37;4.40;;;;;;;;;;5034138;28;20266;-56
2021/07/16 12:49:34;;;;;;;13.23;3.73;;;;;;;;;;5034234;28;20608;-56
2021/07/16 12:52:10;;;;;;;11.63;3.67;;;;;;;;;;5033940;28;20726;-56
2021/07/16 12:54:38;;;;;;;11.10;3.10;;;;;;;;;;5033763;28;20259;-56
2021/07/16 12:57:15;;;;;;;10.33;3.60;;;;;;;;;;5033769;28;20729;-57
2021/07/16 12:59:47;;;;;;;14.13;3.23;;;;;;;;;;5033932;28;20278;-57
2021/07/16 13:02:20;;;;;;;14.50;3.53;;;;;;;;;;5033664;28;20282;-57
2021/07/16 13:04:50;;;;;;;13.77;4.93;;;;;;;;;;5033485;28;20270;-57
2021/07/16 13:07:24;;;;;;;26.00;10.03;;;;;;;;;;5033618;28;20638;-57
2021/07/16 13:09:51;;;;;;;21.23;9.83;;;;;;;;;;5033692;28;20273;-57
2021/07/16 13:12:18;;;;;;;19.07;11.27;;;;;;;;;;5033407;28;20246;-57
2021/07/16 13:14:51;;;;;;;16.27;9.47;;;;;;;;;;5033426;28;20610;-57
2021/07/16 13:17:24;;;;;;;21.17;8.93;;;;;;;;;;5035121;28;20294;-57
2021/07/16 13:19:54;;;;;;;15.80;8.47;;;;;;;;;;5033399;28;20263;-57
2021/07/16 13:22:21;;;;;;;16.97;8.37;;;;;;;;;;5033265;28;20332;-57
2021/07/16 13:24:48;;;;;;;11.67;7.20;;;;;;;;;;5033249;28;20313;-57
2021/07/16 13:27:20;;;;;;;17.40;6.37;;;;;;;;;;5033365;28;20246;-57
2021/07/16 13:29:47;;;;;;;17.50;6.40;;;;;;;;;;5032962;28;20254;-57
2021/07/16 13:32:16;;;;;;;24.27;7.07;;;;;;;;;;5033015;28;20567;-57
2021/07/16 13:34:44;;;;;;;13.27;5.37;;;;;;;;;;5033214;28;20022;-57
2021/07/16 13:37:12;;;;;;;14.23;5.33;;;;;;;;;;5033067;28;20080;-57
2021/07/16 13:39:40;;;;;;;16.97;5.67;;;;;;;;;;5033134;28;20029;-57
2021/07/16 13:42:08;;;;;;;15.63;4.23;;;;;;;;;;5032733;28;20388;-57
2021/07/16 13:44:35;;;;;;;12.83;4.20;;;;;;;;;;5033008;28;20030;-57
2021/07/16 13:47:02;;;;;;;11.63;4.00;;;;;;;;;;5033058;28;20373;-57
2021/07/16 13:49:29;;;;;;;14.33;3.67;;;;;;;;;;5032891;28;20040;-57
2021/07/16 13:51:56;;;;;;;11.40;2.93;;;;;;;;;;5032901;28;20104;-57
2021/07/16 13:54:24;;;;;;;6.70;2.43;;;;;;;;;;5032726;28;20026;-58
2021/07/16 13:56:54;;;;;;;8.90;2.93;;;;;;;;;;5032851;28;20049;-58
2021/07/16 13:59:22;;;;;;;8.97;2.57;;;;;;;;;;5033240;28;20026;-58
2021/07/16 14:01:50;;;;;;;11.00;3.57;;;;;;;;;;5032805;28;20028;-58
2021/07/16 14:04:17;;;;;;;4.97;2.07;;;;;;;;;;5032766;28;20499;-58
2021/07/16 14:06:44;;;;;;;11.20;2.93;;;;;;;;;;5032851;28;20036;-58
2021/07/16 14:09:11;;;;;;;13.63;3.97;;;;;;;;;;5032692;28;20476;-58
2021/07/16 14:11:37;;;;;;;6.67;2.77;;;;;;;;;;5032636;28;20051;-58
2021/07/16 14:14:13;;;;;;;12.47;2.63;;;;;;;;;;5032650;28;20140;-58
2021/07/16 14:16:54;;;;;;;10.77;2.53;;;;;;;;;;5034448;28;20061;-58
2021/07/16 14:19:21;;;;;;;4.80;2.63;;;;;;;;;;5032606;28;20034;-58
2021/07/16 14:21:49;;;;;;;10.17;2.80;;;;;;;;;;5032431;28;20029;-58
2021/07/16 14:24:16;;;;;;;9.43;3.10;;;;;;;;;;5032735;28;20088;-58
2021/07/16 14:26:45;;;;;;;8.10;2.77;;;;;;;;;;5032920;28;20026;-58
2021/07/16 14:29:12;;;;;;;8.57;3.57;;;;;;;;;;5032810;28;20104;-58
2021/07/16 14:31:40;;;;;;;9.73;3.17;;;;;;;;;;5032546;28;20104;-58
2021/07/16 14:34:07;;;;;;;15.43;3.13;;;;;;;;;;5032613;28;20052;-58
2021/07/16 14:36:35;;;;;;;6.97;2.90;;;;;;;;;;5032655;28;20503;-58
2021/07/16 14:39:02;;;;;;;8.30;3.00;;;;;;;;;;5032609;28;20029;-59
2021/07/16 14:41:30;;;;;;;6.20;2.27;;;;;;;;;;5032706;28;20452;-58
2021/07/16 14:43:57;;;;;;;8.77;2.47;;;;;;;;;;5032514;28;20048;-58
2021/07/16 14:46:26;;;;;;;7.70;2.83;;;;;;;;;;5032699;28;20063;-59
2021/07/16 14:48:53;;;;;;;12.87;3.03;;;;;;;;;;5032490;28;20152;-59
2021/07/16 14:51:21;;;;;;;14.43;2.70;;;;;;;;;;5032346;28;20468;-59
2021/07/16 14:53:47;;;;;;;10.70;2.97;;;;;;;;;;5032500;28;20057;-59
2021/07/16 14:56:14;;;;;;;12.70;3.20;;;;;;;;;;5032517;28;20025;-59
2021/07/16 14:58:41;;;;;;;7.93;2.93;;;;;;;;;;5032557;28;20035;-59
2021/07/16 15:01:10;;;;;;;9.47;3.30;;;;;;;;;;5032356;28;20026;-59
2021/07/16 15:03:37;;;;;;;8.73;2.87;;;;;;;;;;5032094;28;20041;-58
2021/07/16 15:06:04;;;;;;;10.80;2.97;;;;;;;;;;5034618;28;20029;-59
2021/07/16 15:08:31;;;;;;;11.60;3.17;;;;;;;;;;5035893;28;20104;-59